sensor_id;sensor_type;location;lat;lon;timestamp;P1;durP1;ratioP1;P2;durP2;ratioP2
58581;SDS011;44361;51.476;5.700;2023-03-08T00:01:14;40.70;;;18.00;;
58581;SDS011;44361;51.476;5.700;2023-03-08T00:03:41;51.23;;;20.20;;
58581;SDS011;44361;51.476;5.700;2023-03-08T00:06:08;43.33;;;18.15;;
58581;SDS011;44361;51.476;5.700;2023-03-08T00:08:36;46.78;;;20.20;;
58581;SDS011;44361;51.476;5.700;2023-03-08T00:11:05;39.80;;;17.77;;
58581;SDS011;44361;51.476;5.700;2023-03-08T00:13:31;43.65;;;19.30;;
58581;SDS011;44361;51.476;5.700;2023-03-08T00:15:59;44.72;;;18.58;;
58581;SDS011;44361;51.476;5.700;2023-03-08T00:18:25;46.90;;;18.92;;
58581;SDS011;44361;51.476;5.700;2023-03-08T00:21:00;40.60;;;19.27;;
58581;SDS011;44361;51.476;5.700;2023-03-08T00:23:36;45.47;;;18.92;;
58581;SDS011;44361;51.476;5.700;2023-03-08T00:26:02;54.10;;;19.30;;
58581;SDS011;44361;51.476;5.700;2023-03-08T00:28:28;43.65;;;20.33;;
58581;SDS011;44361;51.476;5.700;2023-03-08T00:30:55;42.70;;;19.23;;
58581;SDS011;44361;51.476;5.700;2023-03-08T00:33:28;45.88;;;19.52;;
58581;SDS011;44361;51.476;5.700;2023-03-08T00:35:57;44.08;;;19.38;;
58581;SDS011;44361;51.476;5.700;2023-03-08T00:38:28;55.30;;;21.02;;
58581;SDS011;44361;51.476;5.700;2023-03-08T00:40:55;39.97;;;19.35;;
58581;SDS011;44361;51.476;5.700;2023-03-08T00:43:21;43.63;;;19.33;;
58581;SDS011;44361;51.476;5.700;2023-03-08T00:45:47;45.58;;;20.27;;
58581;SDS011;44361;51.476;5.700;2023-03-08T00:48:12;45.70;;;19.98;;
58581;SDS011;44361;51.476;5.700;2023-03-08T00:50:38;46.13;;;19.52;;
58581;SDS011;44361;51.476;5.700;2023-03-08T00:53:04;41.22;;;19.30;;
58581;SDS011;44361;51.476;5.700;2023-03-08T00:55:29;46.78;;;19.77;;
58581;SDS011;44361;51.476;5.700;2023-03-08T00:57:55;43.80;;;20.00;;
58581;SDS011;44361;51.476;5.700;2023-03-08T01:00:22;41.72;;;18.63;;
58581;SDS011;44361;51.476;5.700;2023-03-08T01:02:48;42.05;;;19.75;;
58581;SDS011;44361;51.476;5.700;2023-03-08T01:05:13;44.75;;;19.27;;
58581;SDS011;44361;51.476;5.700;2023-03-08T01:07:39;42.60;;;20.30;;
58581;SDS011;44361;51.476;5.700;2023-03-08T01:10:05;43.53;;;19.58;;
58581;SDS011;44361;51.476;5.700;2023-03-08T01:12:31;45.75;;;19.77;;
58581;SDS011;44361;51.476;5.700;2023-03-08T01:14:58;44.53;;;20.35;;
58581;SDS011;44361;51.476;5.700;2023-03-08T01:17:23;43.50;;;19.48;;
58581;SDS011;44361;51.476;5.700;2023-03-08T01:19:49;41.38;;;18.98;;
58581;SDS011;44361;51.476;5.700;2023-03-08T01:22:14;41.00;;;18.92;;
58581;SDS011;44361;51.476;5.700;2023-03-08T01:24:44;40.78;;;19.42;;
58581;SDS011;44361;51.476;5.700;2023-03-08T01:27:10;41.03;;;19.02;;
58581;SDS011;44361;51.476;5.700;2023-03-08T01:29:35;39.17;;;18.95;;
58581;SDS011;44361;51.476;5.700;2023-03-08T01:32:01;38.80;;;18.27;;
58581;SDS011;44361;51.476;5.700;2023-03-08T01:34:27;42.90;;;19.55;;
58581;SDS011;44361;51.476;5.700;2023-03-08T01:36:52;44.80;;;20.17;;
58581;SDS011;44361;51.476;5.700;2023-03-08T01:39:18;47.22;;;19.83;;
58581;SDS011;44361;51.476;5.700;2023-03-08T01:41:43;47.55;;;20.33;;
58581;SDS011;44361;51.476;5.700;2023-03-08T01:44:16;42.90;;;19.35;;
58581;SDS011;44361;51.476;5.700;2023-03-08T01:46:43;44.63;;;19.52;;
58581;SDS011;44361;51.476;5.700;2023-03-08T01:49:13;49.03;;;20.67;;
58581;SDS011;44361;51.476;5.700;2023-03-08T01:52:01;41.17;;;19.42;;
58581;SDS011;44361;51.476;5.700;2023-03-08T01:54:32;51.42;;;21.75;;
58581;SDS011;44361;51.476;5.700;2023-03-08T01:57:13;47.80;;;20.67;;
58581;SDS011;44361;51.476;5.700;2023-03-08T02:00:01;48.92;;;19.98;;
58581;SDS011;44361;51.476;5.700;2023-03-08T02:02:39;46.38;;;20.55;;
58581;SDS011;44361;51.476;5.700;2023-03-08T02:10:48;44.33;;;19.77;;
58581;SDS011;44361;51.476;5.700;2023-03-08T02:13:14;53.70;;;21.98;;
58581;SDS011;44361;51.476;5.700;2023-03-08T02:15:40;46.15;;;20.23;;
58581;SDS011;44361;51.476;5.700;2023-03-08T02:18:06;45.97;;;20.60;;
58581;SDS011;44361;51.476;5.700;2023-03-08T02:20:36;48.53;;;21.13;;
58581;SDS011;44361;51.476;5.700;2023-03-08T02:23:13;46.58;;;21.67;;
58581;SDS011;44361;51.476;5.700;2023-03-08T02:25:41;46.10;;;20.52;;
58581;SDS011;44361;51.476;5.700;2023-03-08T02:28:33;50.45;;;22.15;;
58581;SDS011;44361;51.476;5.700;2023-03-08T02:30:59;51.67;;;22.80;;
58581;SDS011;44361;51.476;5.700;2023-03-08T02:33:25;52.55;;;22.45;;
58581;SDS011;44361;51.476;5.700;2023-03-08T02:35:51;45.38;;;20.90;;
58581;SDS011;44361;51.476;5.700;2023-03-08T02:38:17;48.35;;;22.05;;
58581;SDS011;44361;51.476;5.700;2023-03-08T02:40:44;48.95;;;21.02;;
58581;SDS011;44361;51.476;5.700;2023-03-08T02:43:10;54.25;;;21.98;;
58581;SDS011;44361;51.476;5.700;2023-03-08T02:45:36;55.78;;;22.88;;
58581;SDS011;44361;51.476;5.700;2023-03-08T02:48:03;47.60;;;21.30;;
58581;SDS011;44361;51.476;5.700;2023-03-08T02:50:29;48.42;;;21.10;;
58581;SDS011;44361;51.476;5.700;2023-03-08T02:52:55;53.78;;;22.17;;
58581;SDS011;44361;51.476;5.700;2023-03-08T02:55:21;55.55;;;22.35;;
58581;SDS011;44361;51.476;5.700;2023-03-08T02:57:47;48.78;;;21.23;;
58581;SDS011;44361;51.476;5.700;2023-03-08T03:00:12;64.43;;;24.42;;
58581;SDS011;44361;51.476;5.700;2023-03-08T03:02:38;49.47;;;22.00;;
58581;SDS011;44361;51.476;5.700;2023-03-08T03:05:04;55.40;;;22.58;;
58581;SDS011;44361;51.476;5.700;2023-03-08T03:07:35;58.05;;;22.20;;
58581;SDS011;44361;51.476;5.700;2023-03-08T03:10:03;62.83;;;23.40;;
58581;SDS011;44361;51.476;5.700;2023-03-08T03:12:29;57.55;;;22.77;;
58581;SDS011;44361;51.476;5.700;2023-03-08T03:14:55;56.05;;;22.95;;
58581;SDS011;44361;51.476;5.700;2023-03-08T03:17:21;54.50;;;21.80;;
58581;SDS011;44361;51.476;5.700;2023-03-08T03:19:46;54.00;;;23.13;;
58581;SDS011;44361;51.476;5.700;2023-03-08T03:22:12;53.25;;;22.35;;
58581;SDS011;44361;51.476;5.700;2023-03-08T03:24:37;47.33;;;21.60;;
58581;SDS011;44361;51.476;5.700;2023-03-08T03:27:03;57.67;;;21.85;;
58581;SDS011;44361;51.476;5.700;2023-03-08T03:29:29;57.25;;;23.25;;
58581;SDS011;44361;51.476;5.700;2023-03-08T03:31:54;52.00;;;20.90;;
58581;SDS011;44361;51.476;5.700;2023-03-08T03:34:20;59.10;;;22.65;;
58581;SDS011;44361;51.476;5.700;2023-03-08T03:36:46;60.47;;;23.45;;
58581;SDS011;44361;51.476;5.700;2023-03-08T03:39:11;55.95;;;22.65;;
58581;SDS011;44361;51.476;5.700;2023-03-08T03:41:37;53.90;;;22.23;;
58581;SDS011;44361;51.476;5.700;2023-03-08T03:44:02;56.22;;;21.60;;
58581;SDS011;44361;51.476;5.700;2023-03-08T03:46:28;54.65;;;22.95;;
58581;SDS011;44361;51.476;5.700;2023-03-08T03:48:53;56.72;;;23.15;;
58581;SDS011;44361;51.476;5.700;2023-03-08T03:51:20;61.70;;;24.17;;
58581;SDS011;44361;51.476;5.700;2023-03-08T03:53:46;58.67;;;23.85;;
58581;SDS011;44361;51.476;5.700;2023-03-08T03:56:13;62.72;;;24.25;;
58581;SDS011;44361;51.476;5.700;2023-03-08T03:58:40;57.78;;;22.90;;
58581;SDS011;44361;51.476;5.700;2023-03-08T04:01:07;61.50;;;24.20;;
58581;SDS011;44361;51.476;5.700;2023-03-08T04:03:33;59.40;;;22.17;;
58581;SDS011;44361;51.476;5.700;2023-03-08T04:06:19;57.88;;;22.67;;
58581;SDS011;44361;51.476;5.700;2023-03-08T04:08:46;60.90;;;23.88;;
58581;SDS011;44361;51.476;5.700;2023-03-08T04:11:14;61.17;;;23.90;;
58581;SDS011;44361;51.476;5.700;2023-03-08T04:13:41;57.55;;;23.85;;
58581;SDS011;44361;51.476;5.700;2023-03-08T04:16:14;63.13;;;23.42;;
58581;SDS011;44361;51.476;5.700;2023-03-08T04:18:42;76.03;;;25.55;;
58581;SDS011;44361;51.476;5.700;2023-03-08T04:21:08;62.58;;;23.60;;
58581;SDS011;44361;51.476;5.700;2023-03-08T04:23:34;64.68;;;24.13;;
58581;SDS011;44361;51.476;5.700;2023-03-08T04:26:00;57.97;;;23.92;;
58581;SDS011;44361;51.476;5.700;2023-03-08T04:28:26;64.32;;;24.55;;
58581;SDS011;44361;51.476;5.700;2023-03-08T04:30:52;65.25;;;24.38;;
58581;SDS011;44361;51.476;5.700;2023-03-08T04:33:18;61.58;;;22.25;;
58581;SDS011;44361;51.476;5.700;2023-03-08T04:35:43;59.55;;;22.50;;
58581;SDS011;44361;51.476;5.700;2023-03-08T04:38:09;57.63;;;23.05;;
58581;SDS011;44361;51.476;5.700;2023-03-08T04:40:34;56.30;;;21.63;;
58581;SDS011;44361;51.476;5.700;2023-03-08T04:43:20;57.33;;;21.98;;
58581;SDS011;44361;51.476;5.700;2023-03-08T04:45:45;61.35;;;22.20;;
58581;SDS011;44361;51.476;5.700;2023-03-08T04:48:11;57.65;;;22.05;;
58581;SDS011;44361;51.476;5.700;2023-03-08T04:50:36;59.92;;;21.67;;
58581;SDS011;44361;51.476;5.700;2023-03-08T04:53:03;58.75;;;21.50;;
58581;SDS011;44361;51.476;5.700;2023-03-08T04:55:29;62.90;;;22.23;;
58581;SDS011;44361;51.476;5.700;2023-03-08T04:57:54;63.65;;;21.80;;
58581;SDS011;44361;51.476;5.700;2023-03-08T05:00:20;60.10;;;23.30;;
58581;SDS011;44361;51.476;5.700;2023-03-08T05:02:45;61.20;;;22.65;;
58581;SDS011;44361;51.476;5.700;2023-03-08T05:05:11;59.20;;;21.80;;
58581;SDS011;44361;51.476;5.700;2023-03-08T05:07:37;61.25;;;22.50;;
58581;SDS011;44361;51.476;5.700;2023-03-08T05:10:02;65.25;;;22.15;;
58581;SDS011;44361;51.476;5.700;2023-03-08T05:12:28;61.08;;;22.85;;
58581;SDS011;44361;51.476;5.700;2023-03-08T05:14:53;62.35;;;23.10;;
58581;SDS011;44361;51.476;5.700;2023-03-08T05:17:19;70.97;;;24.40;;
58581;SDS011;44361;51.476;5.700;2023-03-08T05:19:45;75.38;;;25.75;;
58581;SDS011;44361;51.476;5.700;2023-03-08T05:22:11;71.72;;;26.58;;
58581;SDS011;44361;51.476;5.700;2023-03-08T05:24:37;63.92;;;24.60;;
58581;SDS011;44361;51.476;5.700;2023-03-08T05:27:05;71.78;;;25.92;;
58581;SDS011;44361;51.476;5.700;2023-03-08T05:29:31;68.93;;;25.55;;
58581;SDS011;44361;51.476;5.700;2023-03-08T05:31:58;65.82;;;25.15;;
58581;SDS011;44361;51.476;5.700;2023-03-08T05:34:26;70.60;;;23.88;;
58581;SDS011;44361;51.476;5.700;2023-03-08T05:36:52;69.60;;;24.67;;
58581;SDS011;44361;51.476;5.700;2023-03-08T05:39:17;72.05;;;25.42;;
58581;SDS011;44361;51.476;5.700;2023-03-08T05:41:43;62.78;;;24.02;;
58581;SDS011;44361;51.476;5.700;2023-03-08T05:44:08;68.50;;;25.27;;
58581;SDS011;44361;51.476;5.700;2023-03-08T05:46:34;63.45;;;23.95;;
58581;SDS011;44361;51.476;5.700;2023-03-08T05:49:02;67.63;;;23.90;;
58581;SDS011;44361;51.476;5.700;2023-03-08T05:51:28;69.47;;;23.88;;
58581;SDS011;44361;51.476;5.700;2023-03-08T05:53:53;69.03;;;24.20;;
58581;SDS011;44361;51.476;5.700;2023-03-08T05:56:19;72.35;;;23.10;;
58581;SDS011;44361;51.476;5.700;2023-03-08T05:58:46;49.67;;;19.52;;
58581;SDS011;44361;51.476;5.700;2023-03-08T06:03:49;53.80;;;21.25;;
58581;SDS011;44361;51.476;5.700;2023-03-08T06:06:16;50.00;;;19.58;;
58581;SDS011;44361;51.476;5.700;2023-03-08T06:08:43;45.08;;;16.80;;
58581;SDS011;44361;51.476;5.700;2023-03-08T06:11:09;47.13;;;16.40;;
58581;SDS011;44361;51.476;5.700;2023-03-08T06:13:35;54.63;;;18.98;;
58581;SDS011;44361;51.476;5.700;2023-03-08T06:16:01;41.05;;;16.60;;
58581;SDS011;44361;51.476;5.700;2023-03-08T06:18:27;41.67;;;14.07;;
58581;SDS011;44361;51.476;5.700;2023-03-08T06:20:55;41.55;;;13.63;;
58581;SDS011;44361;51.476;5.700;2023-03-08T06:23:26;38.13;;;11.90;;
58581;SDS011;44361;51.476;5.700;2023-03-08T06:25:52;26.17;;;10.35;;
58581;SDS011;44361;51.476;5.700;2023-03-08T06:28:18;29.25;;;10.75;;
58581;SDS011;44361;51.476;5.700;2023-03-08T06:30:45;27.15;;;10.13;;
58581;SDS011;44361;51.476;5.700;2023-03-08T06:33:13;28.63;;;10.27;;
58581;SDS011;44361;51.476;5.700;2023-03-08T06:35:38;31.20;;;10.07;;
58581;SDS011;44361;51.476;5.700;2023-03-08T06:38:04;25.98;;;9.23;;
58581;SDS011;44361;51.476;5.700;2023-03-08T06:40:30;26.02;;;9.07;;
58581;SDS011;44361;51.476;5.700;2023-03-08T06:42:55;29.48;;;8.90;;
58581;SDS011;44361;51.476;5.700;2023-03-08T06:45:21;26.17;;;8.52;;
58581;SDS011;44361;51.476;5.700;2023-03-08T06:47:46;19.40;;;7.70;;
58581;SDS011;44361;51.476;5.700;2023-03-08T06:50:12;22.75;;;8.27;;
58581;SDS011;44361;51.476;5.700;2023-03-08T06:52:37;20.70;;;8.38;;
58581;SDS011;44361;51.476;5.700;2023-03-08T06:55:03;27.88;;;9.32;;
58581;SDS011;44361;51.476;5.700;2023-03-08T06:57:29;30.33;;;10.57;;
58581;SDS011;44361;51.476;5.700;2023-03-08T06:59:55;29.98;;;10.88;;
58581;SDS011;44361;51.476;5.700;2023-03-08T07:02:20;28.65;;;10.60;;
58581;SDS011;44361;51.476;5.700;2023-03-08T07:04:46;30.50;;;10.95;;
58581;SDS011;44361;51.476;5.700;2023-03-08T07:07:11;24.60;;;9.70;;
58581;SDS011;44361;51.476;5.700;2023-03-08T07:09:37;28.27;;;10.73;;
58581;SDS011;44361;51.476;5.700;2023-03-08T07:12:02;34.13;;;11.05;;
58581;SDS011;44361;51.476;5.700;2023-03-08T07:14:28;27.50;;;10.80;;
58581;SDS011;44361;51.476;5.700;2023-03-08T07:16:54;23.65;;;9.90;;
58581;SDS011;44361;51.476;5.700;2023-03-08T07:19:19;29.20;;;11.45;;
58581;SDS011;44361;51.476;5.700;2023-03-08T07:21:45;29.33;;;11.00;;
58581;SDS011;44361;51.476;5.700;2023-03-08T07:24:10;30.85;;;10.73;;
58581;SDS011;44361;51.476;5.700;2023-03-08T07:26:36;34.05;;;13.18;;
58581;SDS011;44361;51.476;5.700;2023-03-08T07:29:02;37.15;;;13.73;;
58581;SDS011;44361;51.476;5.700;2023-03-08T07:31:27;32.58;;;12.63;;
58581;SDS011;44361;51.476;5.700;2023-03-08T07:33:59;30.05;;;13.10;;
58581;SDS011;44361;51.476;5.700;2023-03-08T07:36:26;30.77;;;13.85;;
58581;SDS011;44361;51.476;5.700;2023-03-08T07:38:51;34.75;;;13.15;;
58581;SDS011;44361;51.476;5.700;2023-03-08T07:41:17;34.72;;;12.77;;
58581;SDS011;44361;51.476;5.700;2023-03-08T07:43:43;28.35;;;12.50;;
58581;SDS011;44361;51.476;5.700;2023-03-08T07:46:08;31.25;;;13.30;;
58581;SDS011;44361;51.476;5.700;2023-03-08T07:48:34;27.92;;;12.88;;
58581;SDS011;44361;51.476;5.700;2023-03-08T07:51:00;29.90;;;12.85;;
58581;SDS011;44361;51.476;5.700;2023-03-08T07:53:27;41.92;;;13.52;;
58581;SDS011;44361;51.476;5.700;2023-03-08T07:55:53;26.50;;;12.35;;
58581;SDS011;44361;51.476;5.700;2023-03-08T07:58:18;32.05;;;15.20;;
58581;SDS011;44361;51.476;5.700;2023-03-08T08:00:45;32.78;;;14.77;;
58581;SDS011;44361;51.476;5.700;2023-03-08T08:03:11;31.08;;;13.82;;
58581;SDS011;44361;51.476;5.700;2023-03-08T08:05:36;33.60;;;14.27;;
58581;SDS011;44361;51.476;5.700;2023-03-08T08:08:02;35.15;;;14.68;;
58581;SDS011;44361;51.476;5.700;2023-03-08T08:10:28;33.97;;;14.73;;
58581;SDS011;44361;51.476;5.700;2023-03-08T08:12:53;32.20;;;13.73;;
58581;SDS011;44361;51.476;5.700;2023-03-08T08:15:19;36.70;;;15.00;;
58581;SDS011;44361;51.476;5.700;2023-03-08T08:17:44;32.85;;;14.15;;
58581;SDS011;44361;51.476;5.700;2023-03-08T08:20:11;28.10;;;12.45;;
58581;SDS011;44361;51.476;5.700;2023-03-08T08:22:38;23.98;;;10.25;;
58581;SDS011;44361;51.476;5.700;2023-03-08T08:25:04;31.75;;;13.02;;
58581;SDS011;44361;51.476;5.700;2023-03-08T08:27:30;34.45;;;13.32;;
58581;SDS011;44361;51.476;5.700;2023-03-08T08:29:56;37.53;;;13.60;;
58581;SDS011;44361;51.476;5.700;2023-03-08T08:32:23;37.53;;;15.57;;
58581;SDS011;44361;51.476;5.700;2023-03-08T08:34:48;44.05;;;16.38;;
58581;SDS011;44361;51.476;5.700;2023-03-08T08:37:14;41.85;;;15.90;;
58581;SDS011;44361;51.476;5.700;2023-03-08T08:39:40;46.03;;;16.02;;
58581;SDS011;44361;51.476;5.700;2023-03-08T08:42:05;47.20;;;16.77;;
58581;SDS011;44361;51.476;5.700;2023-03-08T08:44:31;38.78;;;14.40;;
58581;SDS011;44361;51.476;5.700;2023-03-08T08:46:56;37.92;;;15.00;;
58581;SDS011;44361;51.476;5.700;2023-03-08T08:49:22;47.25;;;17.90;;
58581;SDS011;44361;51.476;5.700;2023-03-08T08:51:47;50.65;;;18.60;;
58581;SDS011;44361;51.476;5.700;2023-03-08T08:54:13;53.65;;;18.92;;
58581;SDS011;44361;51.476;5.700;2023-03-08T08:56:39;48.50;;;18.05;;
58581;SDS011;44361;51.476;5.700;2023-03-08T08:59:08;61.03;;;22.50;;
58581;SDS011;44361;51.476;5.700;2023-03-08T09:01:35;54.63;;;20.48;;
58581;SDS011;44361;51.476;5.700;2023-03-08T09:04:07;56.45;;;20.92;;
58581;SDS011;44361;51.476;5.700;2023-03-08T09:06:33;64.57;;;21.80;;
58581;SDS011;44361;51.476;5.700;2023-03-08T09:08:59;63.03;;;21.15;;
58581;SDS011;44361;51.476;5.700;2023-03-08T09:11:25;59.00;;;22.35;;
58581;SDS011;44361;51.476;5.700;2023-03-08T09:13:51;62.10;;;22.00;;
58581;SDS011;44361;51.476;5.700;2023-03-08T09:16:21;60.85;;;21.83;;
58581;SDS011;44361;51.476;5.700;2023-03-08T09:18:52;57.72;;;21.90;;
58581;SDS011;44361;51.476;5.700;2023-03-08T09:21:20;50.25;;;20.83;;
58581;SDS011;44361;51.476;5.700;2023-03-08T09:23:46;51.15;;;19.00;;
58581;SDS011;44361;51.476;5.700;2023-03-08T09:26:11;48.00;;;19.20;;
58581;SDS011;44361;51.476;5.700;2023-03-08T09:28:37;44.00;;;18.42;;
58581;SDS011;44361;51.476;5.700;2023-03-08T09:31:13;41.78;;;17.73;;
58581;SDS011;44361;51.476;5.700;2023-03-08T09:33:42;46.67;;;19.48;;
58581;SDS011;44361;51.476;5.700;2023-03-08T09:36:16;41.85;;;18.10;;
58581;SDS011;44361;51.476;5.700;2023-03-08T09:38:42;38.63;;;16.55;;
58581;SDS011;44361;51.476;5.700;2023-03-08T09:44:30;40.10;;;17.27;;
58581;SDS011;44361;51.476;5.700;2023-03-08T09:47:12;45.22;;;18.35;;
58581;SDS011;44361;51.476;5.700;2023-03-08T09:49:57;43.63;;;18.88;;
58581;SDS011;44361;51.476;5.700;2023-03-08T09:57:57;43.08;;;19.73;;
58581;SDS011;44361;51.476;5.700;2023-03-08T10:00:30;42.03;;;18.60;;
58581;SDS011;44361;51.476;5.700;2023-03-08T10:05:44;37.72;;;18.48;;
58581;SDS011;44361;51.476;5.700;2023-03-08T10:08:21;44.65;;;19.52;;
58581;SDS011;44361;51.476;5.700;2023-03-08T10:13:33;37.35;;;17.45;;
58581;SDS011;44361;51.476;5.700;2023-03-08T10:16:05;38.83;;;18.55;;
58581;SDS011;44361;51.476;5.700;2023-03-08T10:19:11;39.42;;;18.75;;
58581;SDS011;44361;51.476;5.700;2023-03-08T10:21:47;35.90;;;19.35;;
58581;SDS011;44361;51.476;5.700;2023-03-08T10:24:16;35.33;;;18.50;;
58581;SDS011;44361;51.476;5.700;2023-03-08T10:27:04;36.78;;;18.55;;
58581;SDS011;44361;51.476;5.700;2023-03-08T10:29:38;36.80;;;18.95;;
58581;SDS011;44361;51.476;5.700;2023-03-08T10:32:04;34.05;;;18.15;;
58581;SDS011;44361;51.476;5.700;2023-03-08T10:34:30;29.10;;;15.70;;
58581;SDS011;44361;51.476;5.700;2023-03-08T10:37:00;33.88;;;15.77;;
58581;SDS011;44361;51.476;5.700;2023-03-08T10:39:28;29.98;;;15.32;;
58581;SDS011;44361;51.476;5.700;2023-03-08T10:42:01;30.48;;;17.08;;
58581;SDS011;44361;51.476;5.700;2023-03-08T10:44:35;27.85;;;15.52;;
58581;SDS011;44361;51.476;5.700;2023-03-08T10:49:42;28.48;;;14.05;;
58581;SDS011;44361;51.476;5.700;2023-03-08T10:52:23;25.30;;;13.32;;
58581;SDS011;44361;51.476;5.700;2023-03-08T10:55:00;23.92;;;12.57;;
58581;SDS011;44361;51.476;5.700;2023-03-08T10:57:27;21.52;;;11.85;;
58581;SDS011;44361;51.476;5.700;2023-03-08T10:59:53;24.55;;;13.10;;
58581;SDS011;44361;51.476;5.700;2023-03-08T11:02:24;26.63;;;13.52;;
58581;SDS011;44361;51.476;5.700;2023-03-08T11:07:21;23.10;;;12.27;;
58581;SDS011;44361;51.476;5.700;2023-03-08T11:09:51;21.55;;;11.27;;
58581;SDS011;44361;51.476;5.700;2023-03-08T11:12:48;17.25;;;10.20;;
58581;SDS011;44361;51.476;5.700;2023-03-08T11:15:24;19.20;;;10.23;;
58581;SDS011;44361;51.476;5.700;2023-03-08T11:20:22;16.65;;;9.70;;
58581;SDS011;44361;51.476;5.700;2023-03-08T11:33:53;16.02;;;9.55;;
58581;SDS011;44361;51.476;5.700;2023-03-08T11:39:27;19.83;;;10.30;;
58581;SDS011;44361;51.476;5.700;2023-03-08T11:42:03;15.43;;;9.30;;
58581;SDS011;44361;51.476;5.700;2023-03-08T11:44:50;14.50;;;9.35;;
58581;SDS011;44361;51.476;5.700;2023-03-08T11:47:56;17.73;;;9.57;;
58581;SDS011;44361;51.476;5.700;2023-03-08T11:50:28;16.38;;;8.32;;
58581;SDS011;44361;51.476;5.700;2023-03-08T11:53:02;12.48;;;7.43;;
58581;SDS011;44361;51.476;5.700;2023-03-08T11:58:27;15.77;;;8.10;;
58581;SDS011;44361;51.476;5.700;2023-03-08T12:01:20;13.32;;;8.07;;
58581;SDS011;44361;51.476;5.700;2023-03-08T12:03:50;13.52;;;8.48;;
58581;SDS011;44361;51.476;5.700;2023-03-08T12:06:20;14.00;;;7.82;;
58581;SDS011;44361;51.476;5.700;2023-03-08T12:08:54;14.82;;;8.00;;
58581;SDS011;44361;51.476;5.700;2023-03-08T12:11:30;12.13;;;7.22;;
58581;SDS011;44361;51.476;5.700;2023-03-08T12:14:04;14.25;;;7.65;;
58581;SDS011;44361;51.476;5.700;2023-03-08T12:17:06;12.63;;;7.68;;
58581;SDS011;44361;51.476;5.700;2023-03-08T12:22:14;13.90;;;7.60;;
58581;SDS011;44361;51.476;5.700;2023-03-08T12:33:07;13.52;;;8.50;;
58581;SDS011;44361;51.476;5.700;2023-03-08T12:35:36;17.00;;;9.73;;
58581;SDS011;44361;51.476;5.700;2023-03-08T12:40:48;18.17;;;10.38;;
58581;SDS011;44361;51.476;5.700;2023-03-08T12:45:45;18.52;;;10.43;;
58581;SDS011;44361;51.476;5.700;2023-03-08T12:51:25;17.15;;;10.75;;
58581;SDS011;44361;51.476;5.700;2023-03-08T12:53:55;20.20;;;11.82;;
58581;SDS011;44361;51.476;5.700;2023-03-08T12:59:33;16.27;;;10.25;;
58581;SDS011;44361;51.476;5.700;2023-03-08T13:02:14;19.40;;;10.55;;
58581;SDS011;44361;51.476;5.700;2023-03-08T13:04:47;19.55;;;11.93;;
58581;SDS011;44361;51.476;5.700;2023-03-08T13:09:58;20.00;;;11.77;;
58581;SDS011;44361;51.476;5.700;2023-03-08T13:12:49;20.17;;;11.63;;
58581;SDS011;44361;51.476;5.700;2023-03-08T13:15:25;20.05;;;12.18;;
58581;SDS011;44361;51.476;5.700;2023-03-08T13:17:52;22.17;;;12.60;;
58581;SDS011;44361;51.476;5.700;2023-03-08T13:20:53;20.25;;;11.93;;
58581;SDS011;44361;51.476;5.700;2023-03-08T13:23:48;19.63;;;11.55;;
58581;SDS011;44361;51.476;5.700;2023-03-08T13:29:10;19.42;;;11.05;;
58581;SDS011;44361;51.476;5.700;2023-03-08T13:31:38;19.95;;;11.75;;
58581;SDS011;44361;51.476;5.700;2023-03-08T13:34:04;18.98;;;11.68;;
58581;SDS011;44361;51.476;5.700;2023-03-08T13:36:49;20.27;;;11.88;;
58581;SDS011;44361;51.476;5.700;2023-03-08T13:39:19;19.85;;;12.25;;
58581;SDS011;44361;51.476;5.700;2023-03-08T13:41:49;21.50;;;12.82;;
58581;SDS011;44361;51.476;5.700;2023-03-08T13:46:41;22.90;;;13.23;;
58581;SDS011;44361;51.476;5.700;2023-03-08T13:49:26;22.50;;;12.50;;
58581;SDS011;44361;51.476;5.700;2023-03-08T13:51:56;23.33;;;14.27;;
58581;SDS011;44361;51.476;5.700;2023-03-08T13:54:28;21.58;;;12.40;;
58581;SDS011;44361;51.476;5.700;2023-03-08T13:56:57;25.63;;;14.48;;
58581;SDS011;44361;51.476;5.700;2023-03-08T13:59:24;25.05;;;14.38;;
58581;SDS011;44361;51.476;5.700;2023-03-08T14:01:50;23.17;;;13.05;;
58581;SDS011;44361;51.476;5.700;2023-03-08T14:04:21;25.40;;;14.15;;
58581;SDS011;44361;51.476;5.700;2023-03-08T14:06:55;21.02;;;13.18;;
58581;SDS011;44361;51.476;5.700;2023-03-08T14:09:22;23.85;;;13.90;;
58581;SDS011;44361;51.476;5.700;2023-03-08T14:11:59;25.17;;;13.73;;
58581;SDS011;44361;51.476;5.700;2023-03-08T14:14:33;23.40;;;13.45;;
58581;SDS011;44361;51.476;5.700;2023-03-08T14:17:04;24.00;;;13.52;;
58581;SDS011;44361;51.476;5.700;2023-03-08T14:19:31;21.17;;;12.88;;
58581;SDS011;44361;51.476;5.700;2023-03-08T14:22:00;25.80;;;14.23;;
58581;SDS011;44361;51.476;5.700;2023-03-08T14:24:48;24.75;;;14.48;;
58581;SDS011;44361;51.476;5.700;2023-03-08T14:29:45;26.10;;;14.30;;
58581;SDS011;44361;51.476;5.700;2023-03-08T14:34:38;25.77;;;14.55;;
58581;SDS011;44361;51.476;5.700;2023-03-08T14:39:36;24.35;;;13.00;;
58581;SDS011;44361;51.476;5.700;2023-03-08T14:42:17;24.65;;;14.50;;
58581;SDS011;44361;51.476;5.700;2023-03-08T14:44:51;24.40;;;14.38;;
58581;SDS011;44361;51.476;5.700;2023-03-08T14:49:58;26.17;;;14.43;;
58581;SDS011;44361;51.476;5.700;2023-03-08T14:52:50;23.83;;;12.80;;
58581;SDS011;44361;51.476;5.700;2023-03-08T14:55:19;27.65;;;14.35;;
58581;SDS011;44361;51.476;5.700;2023-03-08T14:57:50;30.23;;;14.30;;
58581;SDS011;44361;51.476;5.700;2023-03-08T15:00:18;27.27;;;14.73;;
58581;SDS011;44361;51.476;5.700;2023-03-08T15:02:44;29.00;;;14.48;;
58581;SDS011;44361;51.476;5.700;2023-03-08T15:05:13;26.63;;;14.63;;
58581;SDS011;44361;51.476;5.700;2023-03-08T15:07:41;25.25;;;14.90;;
58581;SDS011;44361;51.476;5.700;2023-03-08T15:10:08;25.95;;;14.00;;
58581;SDS011;44361;51.476;5.700;2023-03-08T15:12:43;25.15;;;13.98;;
58581;SDS011;44361;51.476;5.700;2023-03-08T15:15:13;25.77;;;13.98;;
58581;SDS011;44361;51.476;5.700;2023-03-08T15:17:39;22.10;;;13.15;;
58581;SDS011;44361;51.476;5.700;2023-03-08T15:20:04;23.45;;;13.75;;
58581;SDS011;44361;51.476;5.700;2023-03-08T15:22:30;28.85;;;14.68;;
58581;SDS011;44361;51.476;5.700;2023-03-08T15:24:57;25.88;;;14.13;;
58581;SDS011;44361;51.476;5.700;2023-03-08T15:27:23;26.80;;;14.82;;
58581;SDS011;44361;51.476;5.700;2023-03-08T15:29:48;24.48;;;13.93;;
58581;SDS011;44361;51.476;5.700;2023-03-08T15:32:14;28.17;;;15.13;;
58581;SDS011;44361;51.476;5.700;2023-03-08T15:34:39;28.05;;;15.15;;
58581;SDS011;44361;51.476;5.700;2023-03-08T15:37:05;24.08;;;14.52;;
58581;SDS011;44361;51.476;5.700;2023-03-08T15:39:31;26.33;;;13.95;;
58581;SDS011;44361;51.476;5.700;2023-03-08T15:41:57;27.63;;;14.80;;
58581;SDS011;44361;51.476;5.700;2023-03-08T15:44:23;27.90;;;15.15;;
58581;SDS011;44361;51.476;5.700;2023-03-08T15:46:49;29.20;;;15.32;;
58581;SDS011;44361;51.476;5.700;2023-03-08T15:49:14;27.15;;;14.80;;
58581;SDS011;44361;51.476;5.700;2023-03-08T15:51:40;28.20;;;15.30;;
58581;SDS011;44361;51.476;5.700;2023-03-08T15:54:06;27.00;;;14.23;;
58581;SDS011;44361;51.476;5.700;2023-03-08T15:56:32;33.00;;;15.45;;
58581;SDS011;44361;51.476;5.700;2023-03-08T15:58:58;28.60;;;15.88;;
58581;SDS011;44361;51.476;5.700;2023-03-08T16:01:24;28.42;;;15.77;;